Terminal Aerodrome Forecast
Issued by NWS Grand Rapids, MI

Home | Current Version | Previous Version | Text Only | Print | Product List | Glossary On
Versions: 1 2 3 4 5 6 7 8 9 10 11 12 13 14 15
000
FTUS43 KGRR 261740
TAFGRR
TAF
KGRR 261740Z 2618/2718 29015G25KT P6SM VCTS SCT025 BKN035CB
     FM270100 29006KT P6SM BKN040
     FM270900 27008KT P6SM SCT040=

USA.gov is the U.S. government's official web portal to all federal, state and local government web resources and services.